| time (UTC) | temp C | wind direction | speed KPH | gust KPH | rain 1hr cm | rain 24hr cm | rain mn cm | humidity % | barometer mb |
| 20260906084503 | 27 | 60 | 19.3 | 0.0 | 0.00 | 0.00 | 0.00 | 50 | 1022.0 |
| 20260906083003 | 27 | 60 | 19.3 | 0.0 | 0.00 | 0.00 | 0.00 | 50 | 1022.0 |
| 20260906074503 | 25 | 50 | 14.5 | 0.0 | 0.00 | 0.00 | 0.00 | 57 | 1021.0 |
| 20260906073003 | 25 | 50 | 14.5 | 0.0 | 0.00 | 0.00 | 0.00 | 57 | 1021.0 |
| 20260906064503 | 22 | 40 | 12.9 | 0.0 | 0.00 | 0.00 | 0.00 | 64 | 1021.0 |
| 20260906060003 | 22 | 40 | 12.9 | 0.0 | 0.00 | 0.00 | 0.00 | 73 | 1020.0 |
| 20260906051503 | 21 | 30 | 11.3 | 0.0 | 0.00 | 0.00 | 0.00 | 77 | 1020.0 |
| 20260906044503 | 22 | 30 | 12.9 | 0.0 | 0.00 | 0.00 | 0.00 | 73 | 1020.0 |
| 20260906043003 | 22 | 30 | 12.9 | 0.0 | 0.00 | 0.00 | 0.00 | 73 | 1020.0 |
| 20260906034504 | 22 | 40 | 14.5 | 0.0 | 0.00 | 0.00 | 0.00 | 73 | 1019.0 |
| 20260906033004 | 22 | 40 | 14.5 | 0.0 | 0.00 | 0.00 | 0.00 | 73 | 1019.0 |
| 20260906031503 | 22 | 40 | 12.9 | 0.0 | 0.00 | 0.00 | 0.00 | 73 | 1019.0 |
| 20260906030004 | 22 | 40 | 12.9 | 0.0 | 0.00 | 0.00 | 0.00 | 73 | 1019.0 |
| 20260906024503 | 22 | 40 | 14.5 | 0.0 | 0.00 | 0.00 | 0.00 | 78 | 1019.0 |
| 20260906023004 | 22 | 40 | 14.5 | 0.0 | 0.00 | 0.00 | 0.00 | 78 | 1019.0 |
| 20260906021503 | 22 | 40 | 14.5 | 0.0 | 0.00 | 0.00 | 0.00 | 78 | 1019.0 |
| 20260906014503 | 22 | 30 | 12.9 | 0.0 | 0.00 | 0.00 | 0.00 | 83 | 1019.0 |
| 20260906010004 | 23 | 10 | 14.5 | 0.0 | 0.00 | 0.00 | 0.00 | 83 | 1019.0 |
| 20260906004503 | 23 | 20 | 9.7 | 0.0 | 0.00 | 0.00 | 0.00 | 88 | 1019.0 |
| 20260906001504 | 23 | 20 | 9.7 | 0.0 | 0.00 | 0.00 | 0.00 | 88 | 1019.0 |
| 20260905234503 | 23 | 30 | 11.3 | 0.0 | 0.00 | 0.00 | 0.00 | 94 | 1019.0 |
| 20260905224503 | 25 | 40 | 11.3 | 0.0 | 0.00 | 0.00 | 0.00 | 88 | 1018.0 |
| 20260905223004 | 25 | 40 | 11.3 | 0.0 | 0.00 | 0.00 | 0.00 | 88 | 1018.0 |
| 20260905221503 | 26 | 80 | 8.0 | 0.0 | 0.00 | 0.00 | 0.00 | 88 | 1018.0 |
| 20260905220005 | 26 | 80 | 8.0 | 0.0 | 0.00 | 0.00 | 0.00 | 88 | 1018.0 |
| 20260905214504 | 26 | 90 | 9.7 | 0.0 | 0.00 | 0.00 | 0.00 | 83 | 1018.0 |
| 20260905213003 | 26 | 90 | 9.7 | 0.0 | 0.00 | 0.00 | 0.00 | 83 | 1018.0 |
| 20260905211503 | 26 | 120 | 9.7 | 0.0 | 0.00 | 0.00 | 0.00 | 83 | 1018.0 |
| 20260905203003 | 27 | 100 | 12.9 | 0.0 | 0.00 | 0.00 | 0.00 | 78 | 1017.0 |
| 20260905193004 | 27 | 90 | 9.7 | 0.0 | 0.00 | 0.00 | 0.00 | 78 | 1017.0 |
| 20260905191503 | 27 | 110 | 9.7 | 0.0 | 0.00 | 0.00 | 0.00 | 74 | 1016.0 |
| 20260905190004 | 27 | 120 | 8.0 | 0.0 | 0.00 | 0.00 | 0.00 | 74 | 1016.0 |
| 20260905174503 | 28 | 120 | 8.0 | 0.0 | 0.00 | 0.00 | 0.00 | 70 | 1015.0 |
| 20260905170004 | 30 | 140 | 8.0 | 0.0 | 0.00 | 0.00 | 0.00 | 66 | 1015.0 |
| 20260905161503 | 30 | 150 | 9.7 | 0.0 | 0.00 | 0.00 | 0.00 | 70 | 1015.0 |
| 20260905160004 | 30 | 150 | 9.7 | 0.0 | 0.00 | 0.00 | 0.00 | 70 | 1015.0 |
| 20260905154503 | 30 | 150 | 9.7 | 0.0 | 0.00 | 0.00 | 0.00 | 66 | 1015.0 |
| 20260905151503 | 30 | 160 | 9.7 | 0.0 | 0.00 | 0.00 | 0.00 | 66 | 1015.0 |
| 20260905150004 | 30 | 160 | 9.7 | 0.0 | 0.00 | 0.00 | 0.00 | 66 | 1015.0 |
| 20260905144503 | 30 | 150 | 9.7 | 0.0 | 0.00 | 0.00 | 0.00 | 66 | 1015.0 |
| 20260905141503 | 30 | 160 | 9.7 | 0.0 | 0.00 | 0.00 | 0.00 | 66 | 1016.0 |
| 20260905140004 | 30 | 160 | 9.7 | 0.0 | 0.00 | 0.00 | 0.00 | 66 | 1016.0 |
| 20260905130004 | 28 | 140 | 9.7 | 0.0 | 0.00 | 0.00 | 0.00 | 65 | 1016.0 |
| 20260905124503 | 27 | 170 | 8.0 | 0.0 | 0.00 | 0.00 | 0.00 | 69 | 1016.0 |
| 20260905121503 | 27 | 150 | 4.8 | 0.0 | 0.00 | 0.00 | 0.00 | 74 | 1016.0 |
| 20260905120004 | 27 | 150 | 4.8 | 0.0 | 0.00 | 0.00 | 0.00 | 74 | 1016.0 |
| 20260905114504 | 27 | 130 | 9.7 | 0.0 | 0.00 | 0.00 | 0.00 | 74 | 1016.0 |
| 20260905113003 | 27 | 130 | 9.7 | 0.0 | 0.00 | 0.00 | 0.00 | 74 | 1016.0 |
| 20260905111503 | 28 | 0 | 4.8 | 0.0 | 0.00 | 0.00 | 0.00 | 65 | 1016.0 |
| 20260905110003 | 28 | 0 | 4.8 | 0.0 | 0.00 | 0.00 | 0.00 | 65 | 1016.0 |
| 20260905104503 | 28 | 0 | 4.8 | 0.0 | 0.00 | 0.00 | 0.00 | 65 | 1016.0 |
| 20260905094502 | 27 | 70 | 8.0 | 0.0 | 0.00 | 0.00 | 0.00 | 65 | 1016.0 |
| 20260905093004 | 27 | 70 | 8.0 | 0.0 | 0.00 | 0.00 | 0.00 | 65 | 1016.0 |
| 20260905091504 | 27 | 30 | 9.7 | 0.0 | 0.00 | 0.00 | 0.00 | 65 | 1016.0 |